Capitol Logistics 315


KMCI
Kansas City International Airport
Kansas City, Missouri, US
KLAX
Los Angeles International Airport
Los Angeles, California, US

Activity Log

Date Flight Route Aircraft Duration
03/14/2020 CPX315 WL5 KENTN SLN J102 ALS J110 RSK J64 TBC J128 PGS DNERO BIGBR3 B763 3h 33m
07/18/2019 CPX315 KMCI/19R SLN KD45W ALS TBC JASSE Q90 DNERO ANJLL4 KLAX/25L B763 2h 54m

Route Details

Aircraft Information
Primary: Boeing 767-300BDSF
Backup: Boeing 757-200SF
Route Data
Distance: 1184nm
Sched. Duration: 3h 29m
Avg. Duration: 2h 93m (-37m)
Times Flown: 2
Recm'd Route: WL5 SLN KD45W ALS TBC JASSE Q90 DNERO ANJLL4
Planned Altitude: 34,000ft
Origin Wx: KMCI 061153Z 17009KT 10SM OVC019 14/12 A2994 RMK AO2 SLP136 T01390117 10139 20106 56010 $
Dest. Wx: KLAX 061153Z 17007KT 3SM RA BR FEW006 SCT014 OVC029 14/11 A2982 RMK AO2 SLP098 VIS NW-N 2 1/2 P0024 60037 70041 T01390111 10150 20133 56011
Notes: METROAIR CARGO SUPPORT

Financial History
Total Freight: 169,124lbs
Average Load: 84,562lbs/flt
Fuel Used: 62,560lbs
Avg. Fuel Used: 31,280lbs/flt
Fuel Expense: $68,816
Avg. Fuel Expense: $34,408
Avg. Fuel Cost: $1.10/lbs
Total Gross Income: $242,607
Pilot Pay: $308
Total Expenses: $26,306
Total Revenue: $145,831
Average Revenue: $121,303.26